sensor_id;sensor_type;location;lat;lon;timestamp;temperature;humidity
12504;DHT22;6316;48.118;-1.690;2023-08-01T00:00:17;19.30;99.90
12504;DHT22;6316;48.118;-1.690;2023-08-01T00:02:43;19.20;99.90
12504;DHT22;6316;48.118;-1.690;2023-08-01T00:05:09;19.10;99.90
12504;DHT22;6316;48.118;-1.690;2023-08-01T00:07:35;19.10;99.90
12504;DHT22;6316;48.118;-1.690;2023-08-01T00:10:01;19.10;99.90
12504;DHT22;6316;48.118;-1.690;2023-08-01T00:12:27;19.10;99.90
12504;DHT22;6316;48.118;-1.690;2023-08-01T00:14:53;19.00;99.90
12504;DHT22;6316;48.118;-1.690;2023-08-01T00:17:18;19.00;99.90
12504;DHT22;6316;48.118;-1.690;2023-08-01T00:19:44;19.00;99.90
12504;DHT22;6316;48.118;-1.690;2023-08-01T00:22:10;19.00;99.90
12504;DHT22;6316;48.118;-1.690;2023-08-01T00:24:36;19.00;99.90
12504;DHT22;6316;48.118;-1.690;2023-08-01T00:27:02;19.10;99.90
12504;DHT22;6316;48.118;-1.690;2023-08-01T00:29:28;19.10;99.90
12504;DHT22;6316;48.118;-1.690;2023-08-01T00:31:55;19.10;99.90
12504;DHT22;6316;48.118;-1.690;2023-08-01T00:34:20;19.10;99.90
12504;DHT22;6316;48.118;-1.690;2023-08-01T00:36:46;19.10;99.90
12504;DHT22;6316;48.118;-1.690;2023-08-01T00:39:11;19.10;99.90
12504;DHT22;6316;48.118;-1.690;2023-08-01T00:41:37;19.10;99.90
12504;DHT22;6316;48.118;-1.690;2023-08-01T00:44:03;19.00;99.90
12504;DHT22;6316;48.118;-1.690;2023-08-01T00:46:29;19.00;99.90
12504;DHT22;6316;48.118;-1.690;2023-08-01T00:48:55;19.00;99.90
12504;DHT22;6316;48.118;-1.690;2023-08-01T00:51:24;18.90;99.90
12504;DHT22;6316;48.118;-1.690;2023-08-01T00:53:50;18.90;99.90
12504;DHT22;6316;48.118;-1.690;2023-08-01T00:56:16;18.90;99.90
12504;DHT22;6316;48.118;-1.690;2023-08-01T00:58:42;18.90;99.90
12504;DHT22;6316;48.118;-1.690;2023-08-01T01:01:08;18.80;99.90
12504;DHT22;6316;48.118;-1.690;2023-08-01T01:03:33;18.80;99.90
12504;DHT22;6316;48.118;-1.690;2023-08-01T01:06:24;18.80;99.90
12504;DHT22;6316;48.118;-1.690;2023-08-01T01:08:50;18.80;99.90
12504;DHT22;6316;48.118;-1.690;2023-08-01T01:11:16;18.70;99.90
12504;DHT22;6316;48.118;-1.690;2023-08-01T01:13:41;18.70;99.90
12504;DHT22;6316;48.118;-1.690;2023-08-01T01:16:07;18.70;99.90
12504;DHT22;6316;48.118;-1.690;2023-08-01T01:18:33;18.70;99.90
12504;DHT22;6316;48.118;-1.690;2023-08-01T01:20:58;18.60;99.90
12504;DHT22;6316;48.118;-1.690;2023-08-01T01:23:25;18.60;99.90
12504;DHT22;6316;48.118;-1.690;2023-08-01T01:25:54;18.60;99.90
12504;DHT22;6316;48.118;-1.690;2023-08-01T01:28:20;18.60;99.90
12504;DHT22;6316;48.118;-1.690;2023-08-01T01:30:46;18.60;99.90
12504;DHT22;6316;48.118;-1.690;2023-08-01T01:33:13;18.60;99.90
12504;DHT22;6316;48.118;-1.690;2023-08-01T01:35:40;18.50;99.90
12504;DHT22;6316;48.118;-1.690;2023-08-01T01:38:06;18.50;99.90
12504;DHT22;6316;48.118;-1.690;2023-08-01T01:40:33;18.50;99.90
12504;DHT22;6316;48.118;-1.690;2023-08-01T01:42:59;18.50;99.90
12504;DHT22;6316;48.118;-1.690;2023-08-01T01:45:26;18.40;99.90
12504;DHT22;6316;48.118;-1.690;2023-08-01T01:47:51;18.40;99.90
12504;DHT22;6316;48.118;-1.690;2023-08-01T01:50:17;18.40;99.90
12504;DHT22;6316;48.118;-1.690;2023-08-01T01:52:43;18.40;99.90
12504;DHT22;6316;48.118;-1.690;2023-08-01T01:55:09;18.40;99.90
12504;DHT22;6316;48.118;-1.690;2023-08-01T01:57:35;18.40;99.90
12504;DHT22;6316;48.118;-1.690;2023-08-01T02:00:06;18.40;99.90
12504;DHT22;6316;48.118;-1.690;2023-08-01T02:02:36;18.30;99.90
12504;DHT22;6316;48.118;-1.690;2023-08-01T02:05:02;18.30;99.90
12504;DHT22;6316;48.118;-1.690;2023-08-01T02:07:29;18.30;99.90
12504;DHT22;6316;48.118;-1.690;2023-08-01T02:09:55;18.30;99.90
12504;DHT22;6316;48.118;-1.690;2023-08-01T02:12:20;18.30;99.90
12504;DHT22;6316;48.118;-1.690;2023-08-01T02:14:46;18.30;99.90
12504;DHT22;6316;48.118;-1.690;2023-08-01T02:17:12;18.40;99.90
12504;DHT22;6316;48.118;-1.690;2023-08-01T02:19:38;18.40;99.90
12504;DHT22;6316;48.118;-1.690;2023-08-01T02:22:03;18.40;99.90
12504;DHT22;6316;48.118;-1.690;2023-08-01T02:24:29;18.30;99.90
12504;DHT22;6316;48.118;-1.690;2023-08-01T02:26:55;18.30;99.90
12504;DHT22;6316;48.118;-1.690;2023-08-01T02:29:20;18.30;99.90
12504;DHT22;6316;48.118;-1.690;2023-08-01T02:31:46;18.20;99.90
12504;DHT22;6316;48.118;-1.690;2023-08-01T02:34:12;18.20;99.90
12504;DHT22;6316;48.118;-1.690;2023-08-01T02:36:37;18.10;99.90
12504;DHT22;6316;48.118;-1.690;2023-08-01T02:39:08;18.10;99.90
12504;DHT22;6316;48.118;-1.690;2023-08-01T02:41:34;18.10;99.90
12504;DHT22;6316;48.118;-1.690;2023-08-01T02:44:00;18.10;99.90
12504;DHT22;6316;48.118;-1.690;2023-08-01T02:46:25;18.00;99.90
12504;DHT22;6316;48.118;-1.690;2023-08-01T02:48:53;18.00;99.90
12504;DHT22;6316;48.118;-1.690;2023-08-01T02:51:19;17.90;99.90
12504;DHT22;6316;48.118;-1.690;2023-08-01T02:53:45;17.90;99.90
12504;DHT22;6316;48.118;-1.690;2023-08-01T02:56:10;17.90;99.90
12504;DHT22;6316;48.118;-1.690;2023-08-01T02:58:36;17.90;99.90
12504;DHT22;6316;48.118;-1.690;2023-08-01T03:01:06;17.80;99.90
12504;DHT22;6316;48.118;-1.690;2023-08-01T03:03:35;17.80;99.90
12504;DHT22;6316;48.118;-1.690;2023-08-01T03:06:02;17.80;99.90
12504;DHT22;6316;48.118;-1.690;2023-08-01T03:08:27;17.80;99.90
12504;DHT22;6316;48.118;-1.690;2023-08-01T03:10:57;17.70;99.90
12504;DHT22;6316;48.118;-1.690;2023-08-01T03:13:23;17.70;99.90
12504;DHT22;6316;48.118;-1.690;2023-08-01T03:15:48;17.70;99.90
12504;DHT22;6316;48.118;-1.690;2023-08-01T03:18:14;17.60;99.90
12504;DHT22;6316;48.118;-1.690;2023-08-01T03:20:40;17.60;99.90
12504;DHT22;6316;48.118;-1.690;2023-08-01T03:23:05;17.60;99.90
12504;DHT22;6316;48.118;-1.690;2023-08-01T03:25:32;17.60;99.90
12504;DHT22;6316;48.118;-1.690;2023-08-01T03:27:58;17.60;99.90
12504;DHT22;6316;48.118;-1.690;2023-08-01T03:30:23;17.50;99.90
12504;DHT22;6316;48.118;-1.690;2023-08-01T03:32:49;17.50;99.90
12504;DHT22;6316;48.118;-1.690;2023-08-01T03:35:15;17.50;99.90
12504;DHT22;6316;48.118;-1.690;2023-08-01T03:37:41;17.40;99.90
12504;DHT22;6316;48.118;-1.690;2023-08-01T03:40:07;17.40;99.90
12504;DHT22;6316;48.118;-1.690;2023-08-01T03:42:38;17.30;99.90
12504;DHT22;6316;48.118;-1.690;2023-08-01T03:45:06;17.30;99.90
12504;DHT22;6316;48.118;-1.690;2023-08-01T03:47:32;17.30;99.90
12504;DHT22;6316;48.118;-1.690;2023-08-01T03:49:58;17.20;99.90
12504;DHT22;6316;48.118;-1.690;2023-08-01T03:52:24;17.20;99.90
12504;DHT22;6316;48.118;-1.690;2023-08-01T03:54:52;17.10;99.90
12504;DHT22;6316;48.118;-1.690;2023-08-01T03:57:18;17.10;99.90
12504;DHT22;6316;48.118;-1.690;2023-08-01T03:59:44;17.10;99.90
12504;DHT22;6316;48.118;-1.690;2023-08-01T04:02:09;17.00;99.90
12504;DHT22;6316;48.118;-1.690;2023-08-01T04:04:35;17.00;99.90
12504;DHT22;6316;48.118;-1.690;2023-08-01T04:07:01;17.00;99.90
12504;DHT22;6316;48.118;-1.690;2023-08-01T04:09:26;17.00;99.90
12504;DHT22;6316;48.118;-1.690;2023-08-01T04:11:52;17.00;99.90
12504;DHT22;6316;48.118;-1.690;2023-08-01T04:14:17;16.90;99.90
12504;DHT22;6316;48.118;-1.690;2023-08-01T04:16:43;16.90;99.90
12504;DHT22;6316;48.118;-1.690;2023-08-01T04:19:09;16.90;99.90
12504;DHT22;6316;48.118;-1.690;2023-08-01T04:21:35;16.90;99.90
12504;DHT22;6316;48.118;-1.690;2023-08-01T04:24:00;16.90;99.90
12504;DHT22;6316;48.118;-1.690;2023-08-01T04:26:26;16.90;99.90
12504;DHT22;6316;48.118;-1.690;2023-08-01T04:28:51;16.90;99.90
12504;DHT22;6316;48.118;-1.690;2023-08-01T04:31:17;16.90;99.90
12504;DHT22;6316;48.118;-1.690;2023-08-01T04:33:43;17.00;99.90
12504;DHT22;6316;48.118;-1.690;2023-08-01T04:36:09;16.90;99.90
12504;DHT22;6316;48.118;-1.690;2023-08-01T04:38:34;17.00;99.90
12504;DHT22;6316;48.118;-1.690;2023-08-01T04:41:00;17.00;99.90
12504;DHT22;6316;48.118;-1.690;2023-08-01T04:43:27;16.90;99.90
12504;DHT22;6316;48.118;-1.690;2023-08-01T04:45:52;17.00;99.90
12504;DHT22;6316;48.118;-1.690;2023-08-01T04:48:18;17.00;99.90
12504;DHT22;6316;48.118;-1.690;2023-08-01T04:50:44;17.00;99.90
12504;DHT22;6316;48.118;-1.690;2023-08-01T04:53:10;17.00;99.90
12504;DHT22;6316;48.118;-1.690;2023-08-01T04:55:36;17.00;99.90
12504;DHT22;6316;48.118;-1.690;2023-08-01T04:58:02;17.10;99.90
12504;DHT22;6316;48.118;-1.690;2023-08-01T05:00:28;17.10;99.90
12504;DHT22;6316;48.118;-1.690;2023-08-01T05:02:53;17.10;99.90
12504;DHT22;6316;48.118;-1.690;2023-08-01T05:05:19;17.10;99.90
12504;DHT22;6316;48.118;-1.690;2023-08-01T05:07:44;17.20;99.90
12504;DHT22;6316;48.118;-1.690;2023-08-01T05:10:10;17.20;99.90
12504;DHT22;6316;48.118;-1.690;2023-08-01T05:12:36;17.20;99.90
12504;DHT22;6316;48.118;-1.690;2023-08-01T05:15:01;17.20;99.90
12504;DHT22;6316;48.118;-1.690;2023-08-01T05:17:27;17.20;99.90
12504;DHT22;6316;48.118;-1.690;2023-08-01T05:19:53;17.20;99.90
12504;DHT22;6316;48.118;-1.690;2023-08-01T05:22:20;17.20;99.90
12504;DHT22;6316;48.118;-1.690;2023-08-01T05:24:46;17.20;99.90
12504;DHT22;6316;48.118;-1.690;2023-08-01T05:27:12;17.20;99.90
12504;DHT22;6316;48.118;-1.690;2023-08-01T05:29:37;17.20;99.90
12504;DHT22;6316;48.118;-1.690;2023-08-01T05:32:03;17.20;99.90
12504;DHT22;6316;48.118;-1.690;2023-08-01T05:34:29;17.20;99.90
12504;DHT22;6316;48.118;-1.690;2023-08-01T05:36:55;17.30;99.90
12504;DHT22;6316;48.118;-1.690;2023-08-01T05:39:20;17.30;99.90
12504;DHT22;6316;48.118;-1.690;2023-08-01T05:41:46;17.30;99.90
12504;DHT22;6316;48.118;-1.690;2023-08-01T05:44:12;17.40;99.90
12504;DHT22;6316;48.118;-1.690;2023-08-01T05:46:37;17.40;99.90
12504;DHT22;6316;48.118;-1.690;2023-08-01T05:49:03;17.50;99.90
12504;DHT22;6316;48.118;-1.690;2023-08-01T05:51:29;17.50;99.90
12504;DHT22;6316;48.118;-1.690;2023-08-01T05:53:54;17.50;99.90
12504;DHT22;6316;48.118;-1.690;2023-08-01T05:56:20;17.60;99.90
12504;DHT22;6316;48.118;-1.690;2023-08-01T05:58:45;17.60;99.90
12504;DHT22;6316;48.118;-1.690;2023-08-01T06:01:11;17.60;99.90
12504;DHT22;6316;48.118;-1.690;2023-08-01T06:03:38;17.70;99.90
12504;DHT22;6316;48.118;-1.690;2023-08-01T06:06:04;17.70;99.90
12504;DHT22;6316;48.118;-1.690;2023-08-01T06:08:30;17.80;99.90
12504;DHT22;6316;48.118;-1.690;2023-08-01T06:10:55;17.80;99.90
12504;DHT22;6316;48.118;-1.690;2023-08-01T06:13:21;17.90;99.90
12504;DHT22;6316;48.118;-1.690;2023-08-01T06:15:47;17.90;99.90
12504;DHT22;6316;48.118;-1.690;2023-08-01T06:18:13;17.90;99.90
12504;DHT22;6316;48.118;-1.690;2023-08-01T06:20:38;17.90;99.90
12504;DHT22;6316;48.118;-1.690;2023-08-01T06:23:05;18.00;99.90
12504;DHT22;6316;48.118;-1.690;2023-08-01T06:25:30;18.00;99.90
12504;DHT22;6316;48.118;-1.690;2023-08-01T06:27:56;18.10;99.90
12504;DHT22;6316;48.118;-1.690;2023-08-01T06:30:22;18.20;99.90
12504;DHT22;6316;48.118;-1.690;2023-08-01T06:32:47;18.20;99.90
12504;DHT22;6316;48.118;-1.690;2023-08-01T06:35:13;18.30;99.90
12504;DHT22;6316;48.118;-1.690;2023-08-01T06:37:39;18.30;99.90
12504;DHT22;6316;48.118;-1.690;2023-08-01T06:40:05;18.40;99.90
12504;DHT22;6316;48.118;-1.690;2023-08-01T06:42:31;18.40;99.90
12504;DHT22;6316;48.118;-1.690;2023-08-01T06:44:56;18.40;99.90
12504;DHT22;6316;48.118;-1.690;2023-08-01T06:47:22;18.50;99.90
12504;DHT22;6316;48.118;-1.690;2023-08-01T06:49:48;18.50;99.90
12504;DHT22;6316;48.118;-1.690;2023-08-01T06:52:13;18.60;99.90
12504;DHT22;6316;48.118;-1.690;2023-08-01T06:54:39;18.70;99.90
12504;DHT22;6316;48.118;-1.690;2023-08-01T06:57:06;18.80;99.90
12504;DHT22;6316;48.118;-1.690;2023-08-01T06:59:32;19.00;99.90
12504;DHT22;6316;48.118;-1.690;2023-08-01T07:01:57;19.10;99.90
12504;DHT22;6316;48.118;-1.690;2023-08-01T07:04:23;19.20;99.90
12504;DHT22;6316;48.118;-1.690;2023-08-01T07:06:49;19.30;99.90
12504;DHT22;6316;48.118;-1.690;2023-08-01T07:09:15;19.40;99.90
12504;DHT22;6316;48.118;-1.690;2023-08-01T07:11:40;19.50;99.90
12504;DHT22;6316;48.118;-1.690;2023-08-01T07:14:06;19.60;99.90
12504;DHT22;6316;48.118;-1.690;2023-08-01T07:16:32;19.60;99.90
12504;DHT22;6316;48.118;-1.690;2023-08-01T07:19:00;19.80;99.90
12504;DHT22;6316;48.118;-1.690;2023-08-01T07:21:26;19.90;99.90
12504;DHT22;6316;48.118;-1.690;2023-08-01T07:23:51;20.10;99.90
12504;DHT22;6316;48.118;-1.690;2023-08-01T07:26:17;20.30;99.90
12504;DHT22;6316;48.118;-1.690;2023-08-01T07:28:43;20.60;99.90
12504;DHT22;6316;48.118;-1.690;2023-08-01T07:31:09;21.10;99.90
12504;DHT22;6316;48.118;-1.690;2023-08-01T07:33:35;21.60;99.90
12504;DHT22;6316;48.118;-1.690;2023-08-01T07:36:01;22.00;99.90
12504;DHT22;6316;48.118;-1.690;2023-08-01T07:38:26;22.20;99.90
12504;DHT22;6316;48.118;-1.690;2023-08-01T07:40:53;22.30;99.90
12504;DHT22;6316;48.118;-1.690;2023-08-01T07:43:19;22.60;99.90
12504;DHT22;6316;48.118;-1.690;2023-08-01T07:45:45;22.80;99.90
12504;DHT22;6316;48.118;-1.690;2023-08-01T07:48:11;23.10;99.90
12504;DHT22;6316;48.118;-1.690;2023-08-01T07:50:36;23.40;99.90
12504;DHT22;6316;48.118;-1.690;2023-08-01T07:53:02;23.90;99.90
12504;DHT22;6316;48.118;-1.690;2023-08-01T07:55:27;24.30;99.90
12504;DHT22;6316;48.118;-1.690;2023-08-01T07:57:53;25.50;99.90
12504;DHT22;6316;48.118;-1.690;2023-08-01T08:00:19;26.40;99.90
12504;DHT22;6316;48.118;-1.690;2023-08-01T08:02:45;26.40;99.90
12504;DHT22;6316;48.118;-1.690;2023-08-01T08:05:11;26.50;99.90
12504;DHT22;6316;48.118;-1.690;2023-08-01T08:07:37;27.00;99.90
12504;DHT22;6316;48.118;-1.690;2023-08-01T08:10:04;27.70;99.90
12504;DHT22;6316;48.118;-1.690;2023-08-01T08:12:30;28.00;99.90
12504;DHT22;6316;48.118;-1.690;2023-08-01T08:14:56;28.00;99.90
12504;DHT22;6316;48.118;-1.690;2023-08-01T08:17:22;27.50;99.90
12504;DHT22;6316;48.118;-1.690;2023-08-01T08:19:48;27.10;99.90
12504;DHT22;6316;48.118;-1.690;2023-08-01T08:22:13;26.80;99.90
12504;DHT22;6316;48.118;-1.690;2023-08-01T08:24:39;27.00;99.90
12504;DHT22;6316;48.118;-1.690;2023-08-01T08:27:05;27.60;99.90
12504;DHT22;6316;48.118;-1.690;2023-08-01T08:29:32;28.40;99.90
12504;DHT22;6316;48.118;-1.690;2023-08-01T08:31:58;29.20;99.90
12504;DHT22;6316;48.118;-1.690;2023-08-01T08:34:23;29.40;99.90
12504;DHT22;6316;48.118;-1.690;2023-08-01T08:36:49;29.30;99.90
12504;DHT22;6316;48.118;-1.690;2023-08-01T08:39:16;29.30;99.90
12504;DHT22;6316;48.118;-1.690;2023-08-01T08:41:47;29.40;99.90
12504;DHT22;6316;48.118;-1.690;2023-08-01T08:44:15;29.00;99.90
12504;DHT22;6316;48.118;-1.690;2023-08-01T08:46:51;28.60;99.90
12504;DHT22;6316;48.118;-1.690;2023-08-01T08:49:21;27.90;99.90
12504;DHT22;6316;48.118;-1.690;2023-08-01T08:51:48;27.30;99.90
12504;DHT22;6316;48.118;-1.690;2023-08-01T08:54:15;26.60;99.90
12504;DHT22;6316;48.118;-1.690;2023-08-01T08:56:41;26.10;99.90
12504;DHT22;6316;48.118;-1.690;2023-08-01T08:59:08;25.80;99.90
12504;DHT22;6316;48.118;-1.690;2023-08-01T09:01:35;25.50;99.90
12504;DHT22;6316;48.118;-1.690;2023-08-01T09:04:01;25.10;99.90
12504;DHT22;6316;48.118;-1.690;2023-08-01T09:06:32;24.80;99.90
12504;DHT22;6316;48.118;-1.690;2023-08-01T09:09:10;24.50;99.90
12504;DHT22;6316;48.118;-1.690;2023-08-01T09:11:54;24.40;99.90
12504;DHT22;6316;48.118;-1.690;2023-08-01T09:14:23;24.20;99.90
12504;DHT22;6316;48.118;-1.690;2023-08-01T09:16:49;24.00;99.90
12504;DHT22;6316;48.118;-1.690;2023-08-01T09:19:19;23.90;99.90
12504;DHT22;6316;48.118;-1.690;2023-08-01T09:21:45;23.70;99.90
12504;DHT22;6316;48.118;-1.690;2023-08-01T09:24:15;23.50;99.90
12504;DHT22;6316;48.118;-1.690;2023-08-01T09:26:41;23.30;99.90
12504;DHT22;6316;48.118;-1.690;2023-08-01T09:29:07;23.10;99.90
12504;DHT22;6316;48.118;-1.690;2023-08-01T09:31:35;23.10;99.90
12504;DHT22;6316;48.118;-1.690;2023-08-01T09:34:02;22.90;99.90
12504;DHT22;6316;48.118;-1.690;2023-08-01T09:36:32;22.90;99.90
12504;DHT22;6316;48.118;-1.690;2023-08-01T09:39:02;22.90;99.90
12504;DHT22;6316;48.118;-1.690;2023-08-01T09:41:29;22.80;99.90
12504;DHT22;6316;48.118;-1.690;2023-08-01T09:43:56;22.70;99.90
12504;DHT22;6316;48.118;-1.690;2023-08-01T09:46:22;22.50;99.90
12504;DHT22;6316;48.118;-1.690;2023-08-01T09:48:47;22.50;99.90
12504;DHT22;6316;48.118;-1.690;2023-08-01T09:51:15;22.40;99.90
12504;DHT22;6316;48.118;-1.690;2023-08-01T09:53:51;22.40;99.90
12504;DHT22;6316;48.118;-1.690;2023-08-01T09:56:23;22.60;99.90
12504;DHT22;6316;48.118;-1.690;2023-08-01T09:58:50;22.80;99.90
12504;DHT22;6316;48.118;-1.690;2023-08-01T10:01:17;23.10;99.90
12504;DHT22;6316;48.118;-1.690;2023-08-01T10:03:47;23.30;99.90
12504;DHT22;6316;48.118;-1.690;2023-08-01T10:06:23;23.50;99.90
12504;DHT22;6316;48.118;-1.690;2023-08-01T10:08:51;23.80;99.90
12504;DHT22;6316;48.118;-1.690;2023-08-01T10:11:19;24.10;99.90
12504;DHT22;6316;48.118;-1.690;2023-08-01T10:13:46;24.20;99.90
12504;DHT22;6316;48.118;-1.690;2023-08-01T10:16:12;24.20;99.90
12504;DHT22;6316;48.118;-1.690;2023-08-01T10:18:39;24.10;99.90
12504;DHT22;6316;48.118;-1.690;2023-08-01T10:21:11;24.10;99.90
12504;DHT22;6316;48.118;-1.690;2023-08-01T10:23:38;24.20;99.90
12504;DHT22;6316;48.118;-1.690;2023-08-01T10:26:05;24.30;99.90
12504;DHT22;6316;48.118;-1.690;2023-08-01T10:28:37;24.40;99.90
12504;DHT22;6316;48.118;-1.690;2023-08-01T10:31:14;24.50;99.90
12504;DHT22;6316;48.118;-1.690;2023-08-01T10:33:41;24.70;99.90
12504;DHT22;6316;48.118;-1.690;2023-08-01T10:36:18;24.80;99.90
12504;DHT22;6316;48.118;-1.690;2023-08-01T10:38:54;24.90;99.90
12504;DHT22;6316;48.118;-1.690;2023-08-01T10:44:14;24.90;99.90
12504;DHT22;6316;48.118;-1.690;2023-08-01T10:46:55;24.90;99.90
12504;DHT22;6316;48.118;-1.690;2023-08-01T10:49:37;24.90;99.90
12504;DHT22;6316;48.118;-1.690;2023-08-01T10:52:26;24.80;99.90
12504;DHT22;6316;48.118;-1.690;2023-08-01T10:55:00;24.60;99.90
12504;DHT22;6316;48.118;-1.690;2023-08-01T10:57:31;24.40;99.90
12504;DHT22;6316;48.118;-1.690;2023-08-01T10:59:58;24.30;99.90
12504;DHT22;6316;48.118;-1.690;2023-08-01T11:02:28;24.10;99.90
12504;DHT22;6316;48.118;-1.690;2023-08-01T11:04:58;24.00;99.90
12504;DHT22;6316;48.118;-1.690;2023-08-01T11:07:24;23.90;99.90
12504;DHT22;6316;48.118;-1.690;2023-08-01T11:09:49;23.70;99.90
12504;DHT22;6316;48.118;-1.690;2023-08-01T11:12:15;23.50;99.90
12504;DHT22;6316;48.118;-1.690;2023-08-01T11:14:41;23.40;99.90
12504;DHT22;6316;48.118;-1.690;2023-08-01T11:17:06;23.40;99.90
12504;DHT22;6316;48.118;-1.690;2023-08-01T11:19:32;23.40;99.90
12504;DHT22;6316;48.118;-1.690;2023-08-01T11:21:58;23.40;99.90
12504;DHT22;6316;48.118;-1.690;2023-08-01T11:24:26;23.50;99.90
12504;DHT22;6316;48.118;-1.690;2023-08-01T11:26:53;23.60;99.90
12504;DHT22;6316;48.118;-1.690;2023-08-01T11:29:20;23.70;99.90
12504;DHT22;6316;48.118;-1.690;2023-08-01T11:31:59;23.80;99.90
12504;DHT22;6316;48.118;-1.690;2023-08-01T11:34:25;23.80;99.90
12504;DHT22;6316;48.118;-1.690;2023-08-01T11:36:51;23.70;99.90
12504;DHT22;6316;48.118;-1.690;2023-08-01T11:39:17;23.70;99.90
12504;DHT22;6316;48.118;-1.690;2023-08-01T11:41:44;23.70;99.90
12504;DHT22;6316;48.118;-1.690;2023-08-01T11:44:10;23.60;99.90
12504;DHT22;6316;48.118;-1.690;2023-08-01T11:46:37;23.60;99.90
12504;DHT22;6316;48.118;-1.690;2023-08-01T11:49:05;23.70;99.90
12504;DHT22;6316;48.118;-1.690;2023-08-01T11:51:42;23.70;99.90
12504;DHT22;6316;48.118;-1.690;2023-08-01T11:54:08;23.70;99.90
12504;DHT22;6316;48.118;-1.690;2023-08-01T11:56:36;23.70;99.90
12504;DHT22;6316;48.118;-1.690;2023-08-01T11:59:16;23.60;99.90
12504;DHT22;6316;48.118;-1.690;2023-08-01T12:01:46;23.60;99.90
12504;DHT22;6316;48.118;-1.690;2023-08-01T12:04:23;23.60;99.90
12504;DHT22;6316;48.118;-1.690;2023-08-01T12:06:48;23.60;99.90
12504;DHT22;6316;48.118;-1.690;2023-08-01T12:09:14;23.70;99.90
12504;DHT22;6316;48.118;-1.690;2023-08-01T12:11:41;23.70;99.90
12504;DHT22;6316;48.118;-1.690;2023-08-01T12:14:09;23.70;99.90
12504;DHT22;6316;48.118;-1.690;2023-08-01T12:16:36;23.60;99.90
12504;DHT22;6316;48.118;-1.690;2023-08-01T12:19:02;23.60;99.90
12504;DHT22;6316;48.118;-1.690;2023-08-01T12:21:29;23.60;99.90
12504;DHT22;6316;48.118;-1.690;2023-08-01T12:23:55;23.50;99.90
12504;DHT22;6316;48.118;-1.690;2023-08-01T12:26:22;23.40;99.90
12504;DHT22;6316;48.118;-1.690;2023-08-01T12:28:48;23.30;99.90
12504;DHT22;6316;48.118;-1.690;2023-08-01T12:31:18;23.20;99.90
12504;DHT22;6316;48.118;-1.690;2023-08-01T12:33:44;23.10;99.90
12504;DHT22;6316;48.118;-1.690;2023-08-01T12:36:10;23.10;99.90
12504;DHT22;6316;48.118;-1.690;2023-08-01T12:38:35;23.00;99.90
12504;DHT22;6316;48.118;-1.690;2023-08-01T12:41:01;22.90;99.90
12504;DHT22;6316;48.118;-1.690;2023-08-01T12:43:27;22.80;99.90
12504;DHT22;6316;48.118;-1.690;2023-08-01T12:45:53;22.80;99.90
12504;DHT22;6316;48.118;-1.690;2023-08-01T12:48:19;22.70;99.90
12504;DHT22;6316;48.118;-1.690;2023-08-01T12:50:45;22.70;99.90
12504;DHT22;6316;48.118;-1.690;2023-08-01T12:53:12;22.60;99.90
12504;DHT22;6316;48.118;-1.690;2023-08-01T12:55:38;22.60;99.90
12504;DHT22;6316;48.118;-1.690;2023-08-01T12:58:03;22.60;99.90
12504;DHT22;6316;48.118;-1.690;2023-08-01T13:00:32;22.50;99.90
12504;DHT22;6316;48.118;-1.690;2023-08-01T13:02:58;22.50;99.90
12504;DHT22;6316;48.118;-1.690;2023-08-01T13:05:23;22.50;99.90
12504;DHT22;6316;48.118;-1.690;2023-08-01T13:07:49;22.50;99.90
12504;DHT22;6316;48.118;-1.690;2023-08-01T13:10:15;22.50;99.90
12504;DHT22;6316;48.118;-1.690;2023-08-01T13:12:41;22.50;99.90
12504;DHT22;6316;48.118;-1.690;2023-08-01T13:15:08;22.40;99.90
12504;DHT22;6316;48.118;-1.690;2023-08-01T13:17:34;22.40;99.90
12504;DHT22;6316;48.118;-1.690;2023-08-01T13:19:59;22.50;99.90
12504;DHT22;6316;48.118;-1.690;2023-08-01T13:22:25;22.50;99.90
12504;DHT22;6316;48.118;-1.690;2023-08-01T13:24:51;22.50;99.90
12504;DHT22;6316;48.118;-1.690;2023-08-01T13:27:16;22.60;99.90
12504;DHT22;6316;48.118;-1.690;2023-08-01T13:29:42;22.60;99.90
12504;DHT22;6316;48.118;-1.690;2023-08-01T13:32:08;22.50;99.90
12504;DHT22;6316;48.118;-1.690;2023-08-01T13:34:35;22.50;99.90
12504;DHT22;6316;48.118;-1.690;2023-08-01T13:37:01;22.40;99.90
12504;DHT22;6316;48.118;-1.690;2023-08-01T13:39:27;22.40;99.90
12504;DHT22;6316;48.118;-1.690;2023-08-01T13:41:52;22.40;99.90
12504;DHT22;6316;48.118;-1.690;2023-08-01T13:44:18;22.40;99.90
12504;DHT22;6316;48.118;-1.690;2023-08-01T13:46:44;22.40;99.90
12504;DHT22;6316;48.118;-1.690;2023-08-01T13:49:09;22.40;99.90
12504;DHT22;6316;48.118;-1.690;2023-08-01T13:51:35;22.30;99.90
12504;DHT22;6316;48.118;-1.690;2023-08-01T13:54:01;22.30;99.90
12504;DHT22;6316;48.118;-1.690;2023-08-01T13:56:26;22.30;99.90
12504;DHT22;6316;48.118;-1.690;2023-08-01T13:58:52;22.40;99.90
12504;DHT22;6316;48.118;-1.690;2023-08-01T14:01:18;22.40;99.90
12504;DHT22;6316;48.118;-1.690;2023-08-01T14:03:44;22.40;99.90
12504;DHT22;6316;48.118;-1.690;2023-08-01T14:06:14;22.40;99.90
12504;DHT22;6316;48.118;-1.690;2023-08-01T14:08:41;22.40;99.90
12504;DHT22;6316;48.118;-1.690;2023-08-01T14:11:08;22.30;99.90
12504;DHT22;6316;48.118;-1.690;2023-08-01T14:13:37;22.30;99.90
12504;DHT22;6316;48.118;-1.690;2023-08-01T14:16:03;22.20;99.90
12504;DHT22;6316;48.118;-1.690;2023-08-01T14:18:29;22.20;99.90
12504;DHT22;6316;48.118;-1.690;2023-08-01T14:20:55;22.20;99.90
12504;DHT22;6316;48.118;-1.690;2023-08-01T14:23:21;22.10;99.90
12504;DHT22;6316;48.118;-1.690;2023-08-01T14:25:47;22.10;99.90
12504;DHT22;6316;48.118;-1.690;2023-08-01T14:28:13;22.00;99.90
12504;DHT22;6316;48.118;-1.690;2023-08-01T14:30:39;21.90;99.90
12504;DHT22;6316;48.118;-1.690;2023-08-01T14:33:09;21.90;99.90
12504;DHT22;6316;48.118;-1.690;2023-08-01T14:35:38;21.90;99.90
12504;DHT22;6316;48.118;-1.690;2023-08-01T14:38:04;21.80;99.90
12504;DHT22;6316;48.118;-1.690;2023-08-01T14:40:30;21.80;99.90
12504;DHT22;6316;48.118;-1.690;2023-08-01T14:42:56;21.70;99.90
12504;DHT22;6316;48.118;-1.690;2023-08-01T14:45:22;21.60;99.90
12504;DHT22;6316;48.118;-1.690;2023-08-01T14:47:48;21.50;99.90
12504;DHT22;6316;48.118;-1.690;2023-08-01T14:50:14;21.40;99.90
12504;DHT22;6316;48.118;-1.690;2023-08-01T14:52:41;21.40;99.90
12504;DHT22;6316;48.118;-1.690;2023-08-01T14:55:08;21.30;99.90
12504;DHT22;6316;48.118;-1.690;2023-08-01T14:57:33;21.30;99.90
12504;DHT22;6316;48.118;-1.690;2023-08-01T14:59:59;21.30;99.90
12504;DHT22;6316;48.118;-1.690;2023-08-01T15:02:26;21.30;99.90
12504;DHT22;6316;48.118;-1.690;2023-08-01T15:04:53;21.20;99.90
12504;DHT22;6316;48.118;-1.690;2023-08-01T15:07:24;21.20;99.90
12504;DHT22;6316;48.118;-1.690;2023-08-01T15:09:52;21.20;99.90
12504;DHT22;6316;48.118;-1.690;2023-08-01T15:12:18;21.20;99.90
12504;DHT22;6316;48.118;-1.690;2023-08-01T15:14:53;21.20;99.90
12504;DHT22;6316;48.118;-1.690;2023-08-01T15:17:19;21.30;99.90
12504;DHT22;6316;48.118;-1.690;2023-08-01T15:19:45;21.30;99.90
12504;DHT22;6316;48.118;-1.690;2023-08-01T15:22:13;21.20;99.90
12504;DHT22;6316;48.118;-1.690;2023-08-01T15:24:39;21.20;99.90
12504;DHT22;6316;48.118;-1.690;2023-08-01T15:27:05;21.20;99.90
12504;DHT22;6316;48.118;-1.690;2023-08-01T15:29:31;21.20;99.90